Time;durP1;ratioP1;P1;durP2;ratioP2;P2;SDS_P1;SDS_P2;PMS_P1;PMS_P2;Temp;Humidity;BMP_temperature;BMP_pressure;BME280_temperature;BME280_humidity;BME280_pressure;Samples;Min_cycle;Max_cycle;Signal;HPM_P1;HPM_P2
2022/01/22 00:01:49;;;;;;;13.77;9.85;;;4.00;99.90;;;;;;5088693;28;20633;-67
2022/01/22 00:04:16;;;;;;;14.30;8.57;;;4.00;99.90;;;;;;5088880;28;20218;-67
2022/01/22 00:06:43;;;;;;;15.10;9.82;;;4.00;99.90;;;;;;5079982;28;20209;-66
2022/01/22 00:09:11;;;;;;;13.57;9.60;;;4.00;99.90;;;;;;5075602;28;20194;-67
2022/01/22 00:11:50;;;;;;;12.75;9.40;;;4.00;99.90;;;;;;5075227;28;20565;-67
2022/01/22 00:14:26;;;;;;;13.82;9.23;;;4.10;99.90;;;;;;5075348;28;20225;-67
2022/01/22 00:16:55;;;;;;;14.65;9.40;;;4.00;99.90;;;;;;5075022;28;20224;-67
2022/01/22 00:19:22;;;;;;;14.75;9.20;;;4.00;99.90;;;;;;5075441;28;20298;-67
2022/01/22 00:21:49;;;;;;;16.05;9.90;;;4.00;99.90;;;;;;5074710;28;20210;-67
2022/01/22 00:24:17;;;;;;;13.88;9.23;;;4.00;99.90;;;;;;5075299;28;20218;-68
2022/01/22 00:26:45;;;;;;;14.55;9.05;;;4.00;99.90;;;;;;5074980;28;20202;-67
2022/01/22 00:29:12;;;;;;;13.63;9.40;;;4.00;99.90;;;;;;5075008;28;20209;-67
2022/01/22 00:31:41;;;;;;;13.60;9.00;;;4.00;99.90;;;;;;5074603;28;20209;-67
2022/01/22 00:34:09;;;;;;;12.95;9.18;;;4.10;99.90;;;;;;5074962;28;20313;-69
2022/01/22 00:36:38;;;;;;;13.63;9.38;;;4.10;99.90;;;;;;5074780;28;20337;-69
2022/01/22 00:39:05;;;;;;;11.90;8.57;;;4.10;99.90;;;;;;5074972;28;20203;-69
2022/01/22 00:41:32;;;;;;;12.30;9.27;;;4.20;99.90;;;;;;5074646;28;20226;-69
2022/01/22 00:43:59;;;;;;;15.68;9.55;;;4.20;99.90;;;;;;5074779;28;20226;-69
2022/01/22 00:46:26;;;;;;;11.82;8.45;;;4.20;99.90;;;;;;5074919;28;20567;-68
2022/01/22 00:48:53;;;;;;;15.55;9.25;;;4.20;99.90;;;;;;5074477;28;20743;-69
2022/01/22 00:51:21;;;;;;;14.48;9.20;;;4.30;99.90;;;;;;5074570;28;20213;-69
2022/01/22 00:53:48;;;;;;;12.52;8.65;;;4.30;99.90;;;;;;5074575;28;20223;-69
2022/01/22 00:56:15;;;;;;;13.20;8.73;;;4.30;99.90;;;;;;5074920;28;20230;-69
2022/01/22 00:58:42;;;;;;;10.88;8.57;;;4.40;99.90;;;;;;5074550;28;20289;-69
2022/01/22 01:01:09;;;;;;;11.45;7.97;;;4.40;99.90;;;;;;5074216;28;20203;-68
2022/01/22 01:03:35;;;;;;;9.75;7.68;;;4.40;99.90;;;;;;5074584;28;20226;-69
2022/01/22 01:06:02;;;;;;;12.98;8.30;;;4.40;99.90;;;;;;5074979;28;20793;-69
2022/01/22 01:08:33;;;;;;;11.55;8.18;;;4.40;99.90;;;;;;5074464;28;20199;-69
2022/01/22 01:11:01;;;;;;;13.05;7.53;;;4.40;99.90;;;;;;5073923;28;20238;-68
2022/01/22 01:13:31;;;;;;;11.35;8.15;;;4.40;99.90;;;;;;5074317;28;20614;-68
2022/01/22 01:16:03;;;;;;;10.38;7.90;;;4.40;99.90;;;;;;5074082;28;20265;-68
2022/01/22 01:32:29;;;;;;;11.15;8.05;;;4.60;99.90;;;;;;5073566;28;20237;-68
2022/01/22 01:34:58;;;;;;;9.48;7.45;;;4.60;99.90;;;;;;5073584;28;20222;-68
2022/01/22 01:37:25;;;;;;;8.90;5.75;;;4.60;99.90;;;;;;5073578;28;20418;-68
2022/01/22 01:39:54;;;;;;;10.30;8.10;;;4.60;99.90;;;;;;5073461;28;20297;-68
2022/01/22 01:42:29;;;;;;;10.48;7.50;;;4.60;99.90;;;;;;5073310;28;20202;-68
2022/01/22 01:45:00;;;;;;;12.68;8.05;;;4.50;99.90;;;;;;5073773;28;20213;-68
2022/01/22 01:47:27;;;;;;;11.23;8.25;;;4.60;99.90;;;;;;5073360;28;20648;-68
2022/01/22 01:49:54;;;;;;;11.45;7.97;;;4.60;99.90;;;;;;5073265;28;20238;-68
2022/01/22 01:52:29;;;;;;;12.32;8.43;;;4.70;99.90;;;;;;5073328;28;20293;-67
2022/01/22 01:55:03;;;;;;;11.07;8.50;;;4.60;99.90;;;;;;5073100;28;20325;-67
2022/01/22 01:57:38;;;;;;;10.80;8.65;;;4.60;99.90;;;;;;5073566;28;20209;-67
2022/01/22 02:00:11;;;;;;;11.38;8.52;;;4.70;99.90;;;;;;5073384;28;20259;-67
2022/01/22 02:02:39;;;;;;;10.38;8.27;;;4.60;99.90;;;;;;5073386;28;20210;-68
2022/01/22 02:05:10;;;;;;;10.90;7.32;;;4.60;99.90;;;;;;5073613;28;20198;-68
2022/01/22 02:07:39;;;;;;;11.77;8.10;;;4.70;99.90;;;;;;5073468;28;20210;-69
2022/01/22 02:10:09;;;;;;;10.85;7.80;;;4.60;99.90;;;;;;5073437;28;20202;-69
2022/01/22 02:13:00;;;;;;;15.38;9.80;;;4.70;99.90;;;;;;5072927;28;20210;-67
2022/01/22 02:23:43;;;;;;;12.98;9.10;;;4.80;99.90;;;;;;5072915;28;20253;-67
2022/01/22 02:26:13;;;;;;;14.82;9.48;;;4.80;99.90;;;;;;5072945;28;20290;-67
2022/01/22 02:28:42;;;;;;;15.35;10.73;;;4.90;99.90;;;;;;5072757;28;20625;-67
2022/01/22 02:31:14;;;;;;;13.55;8.80;;;5.00;99.90;;;;;;5073117;28;20289;-66
2022/01/22 02:33:51;;;;;;;13.10;9.68;;;5.10;99.90;;;;;;5073010;28;20594;-67
2022/01/22 02:36:23;;;;;;;11.05;7.15;;;5.10;99.90;;;;;;5072658;28;20263;-68
2022/01/22 02:38:57;;;;;;;13.75;9.32;;;5.10;99.90;;;;;;5073243;28;20211;-66
2022/01/22 02:41:25;;;;;;;15.20;10.18;;;5.10;99.90;;;;;;5073211;28;20256;-68
2022/01/22 02:43:53;;;;;;;13.25;9.35;;;5.10;99.90;;;;;;5072928;28;20227;-67
2022/01/22 02:46:23;;;;;;;13.65;9.98;;;5.10;99.90;;;;;;5073071;28;20203;-67
2022/01/22 02:48:50;;;;;;;13.05;8.90;;;5.10;99.90;;;;;;5072750;28;20297;-67
2022/01/22 02:51:18;;;;;;;13.57;8.93;;;5.00;99.90;;;;;;5072575;28;20298;-66
2022/01/22 02:53:44;;;;;;;15.00;10.20;;;5.10;99.90;;;;;;5072888;28;20218;-67
2022/01/22 02:56:13;;;;;;;14.77;10.13;;;5.20;99.90;;;;;;5073029;28;20229;-67
2022/01/22 02:58:40;;;;;;;14.02;9.70;;;5.20;99.90;;;;;;5072822;28;20207;-67
2022/01/22 03:01:06;;;;;;;12.98;10.18;;;5.10;99.90;;;;;;5072624;28;20199;-67
2022/01/22 03:03:33;;;;;;;16.13;9.25;;;5.10;99.90;;;;;;5072500;28;20218;-67
2022/01/22 03:06:01;;;;;;;12.63;8.50;;;5.10;99.90;;;;;;5072522;28;20662;-66
2022/01/22 03:08:29;;;;;;;12.25;9.35;;;5.00;99.90;;;;;;5072682;28;20218;-67
2022/01/22 03:10:56;;;;;;;14.32;9.73;;;5.00;99.90;;;;;;5072148;28;20248;-66
2022/01/22 03:16:14;;;;;;;14.50;10.27;;;4.80;99.90;;;;;;5069553;28;20220;-67
2022/01/22 03:18:49;;;;;;;13.40;9.73;;;4.90;99.90;;;;;;5072899;28;20593;-67
2022/01/22 03:21:37;;;;;;;16.50;9.65;;;4.90;99.90;;;;;;5072432;28;20293;-67
2022/01/22 03:29:38;;;;;;;12.52;9.48;;;4.90;99.90;;;;;;5072577;28;20679;-67
2022/01/22 03:32:06;;;;;;;11.98;9.38;;;4.80;99.90;;;;;;5072619;28;20209;-66
2022/01/22 03:34:39;;;;;;;12.55;9.20;;;4.80;99.90;;;;;;5072656;28;20223;-66
2022/01/22 03:37:06;;;;;;;13.73;9.55;;;4.90;99.90;;;;;;5072335;28;20275;-67
2022/01/22 03:39:33;;;;;;;14.23;9.43;;;4.90;99.90;;;;;;5072535;28;20626;-66
2022/01/22 03:42:00;;;;;;;12.38;7.97;;;4.90;99.90;;;;;;5074151;28;20210;-67
2022/01/22 03:44:26;;;;;;;13.40;9.63;;;4.90;99.90;;;;;;5076112;28;20722;-67
2022/01/22 03:46:55;;;;;;;12.35;9.15;;;4.90;99.90;;;;;;5075747;28;20202;-67
2022/01/22 03:49:21;;;;;;;13.85;9.35;;;5.00;99.90;;;;;;5075863;28;20213;-67
2022/01/22 03:51:48;;;;;;;11.88;9.10;;;5.00;99.90;;;;;;5075699;28;20207;-67
2022/01/22 03:54:15;;;;;;;13.05;8.52;;;5.00;99.90;;;;;;5075706;28;20316;-67
2022/01/22 03:56:45;;;;;;;12.80;9.38;;;5.00;99.90;;;;;;5075829;28;20226;-67
2022/01/22 03:59:13;;;;;;;11.20;8.18;;;5.00;99.90;;;;;;5075683;28;20230;-67
2022/01/22 04:02:05;;;;;;;13.52;9.82;;;5.00;99.90;;;;;;5075383;28;20203;-67
2022/01/22 04:04:37;;;;;;;14.38;9.82;;;5.00;99.90;;;;;;5076011;28;20233;-67
2022/01/22 04:07:50;;;;;;;13.73;9.55;;;5.00;99.90;;;;;;5075632;28;20661;-67
2022/01/22 04:10:18;;;;;;;13.63;9.75;;;4.90;99.90;;;;;;5075446;28;20206;-67
2022/01/22 04:12:51;;;;;;;15.05;10.23;;;4.90;99.90;;;;;;5075436;28;20628;-67
2022/01/22 04:15:21;;;;;;;15.02;10.63;;;4.90;99.90;;;;;;5075450;28;20245;-67
2022/01/22 04:26:13;;;;;;;13.75;9.68;;;4.90;99.90;;;;;;5075316;28;20201;-67
2022/01/22 04:28:39;;;;;;;13.75;9.80;;;5.00;99.90;;;;;;5075069;28;20302;-67
2022/01/22 04:31:06;;;;;;;14.55;9.57;;;5.00;99.90;;;;;;5074805;28;20199;-67
2022/01/22 04:33:33;;;;;;;13.35;9.68;;;4.90;99.90;;;;;;5075193;28;20229;-67
2022/01/22 04:36:01;;;;;;;13.00;9.30;;;4.90;99.90;;;;;;5075092;28;20229;-67
2022/01/22 04:38:28;;;;;;;15.70;9.73;;;4.90;99.90;;;;;;5074975;28;20207;-67
2022/01/22 04:40:55;;;;;;;13.50;9.90;;;4.90;99.90;;;;;;5074942;28;20584;-67
2022/01/22 04:43:22;;;;;;;14.60;10.10;;;4.90;99.90;;;;;;5074677;28;20730;-67
2022/01/22 04:45:56;;;;;;;19.60;11.15;;;5.00;99.90;;;;;;5075063;28;20234;-67
2022/01/22 04:48:42;;;;;;;22.13;13.57;;;5.00;99.90;;;;;;5074941;28;20577;-67
2022/01/22 04:56:39;;;;;;;14.45;9.93;;;5.00;99.90;;;;;;5074644;28;20229;-67
2022/01/22 04:59:06;;;;;;;14.00;9.82;;;5.10;99.90;;;;;;5074712;28;20205;-67
2022/01/22 05:01:33;;;;;;;11.90;7.43;;;5.00;99.90;;;;;;5074534;28;20210;-67
2022/01/22 05:03:59;;;;;;;17.33;10.40;;;5.10;99.90;;;;;;5074321;28;20670;-67
2022/01/22 05:06:29;;;;;;;13.48;9.02;;;5.10;99.90;;;;;;5074297;28;20289;-67
2022/01/22 05:08:56;;;;;;;12.63;9.98;;;5.10;99.90;;;;;;5074755;28;20199;-67
2022/01/22 05:11:24;;;;;;;14.55;9.77;;;5.10;99.90;;;;;;5074318;28;20217;-67
2022/01/22 05:13:51;;;;;;;13.80;9.80;;;5.10;99.90;;;;;;5074044;28;20222;-67
2022/01/22 05:16:18;;;;;;;14.60;10.32;;;5.10;99.90;;;;;;5074232;28;20226;-67
2022/01/22 05:18:51;;;;;;;13.40;9.25;;;5.10;99.90;;;;;;5074299;28;20202;-67
2022/01/22 05:21:19;;;;;;;12.25;8.70;;;5.00;99.90;;;;;;5074036;28;20195;-67
2022/01/22 05:23:48;;;;;;;10.50;6.82;;;5.00;99.90;;;;;;5074117;28;20711;-67
2022/01/22 05:26:40;;;;;;;13.95;10.13;;;4.80;99.90;;;;;;5074425;28;20599;-67
2022/01/22 05:29:22;;;;;;;15.63;10.10;;;4.80;99.90;;;;;;5074075;28;20664;-67
2022/01/22 05:32:17;;;;;;;16.92;10.18;;;4.90;99.90;;;;;;5074136;28;20203;-67
2022/01/22 05:37:26;;;;;;;12.95;9.45;;;5.00;99.90;;;;;;5074036;28;20216;-67
2022/01/22 05:39:54;;;;;;;19.75;13.38;;;5.00;99.90;;;;;;5073504;28;20294;-67
2022/01/22 05:42:21;;;;;;;15.63;10.48;;;5.00;99.90;;;;;;5073778;28;20293;-67
2022/01/22 05:44:48;;;;;;;17.50;10.35;;;5.00;99.90;;;;;;5073784;28;20211;-67
2022/01/22 05:47:20;;;;;;;13.85;10.25;;;5.10;99.90;;;;;;5073555;28;20755;-67
2022/01/22 05:49:47;;;;;;;14.32;10.05;;;5.10;99.90;;;;;;5073477;28;20207;-67
2022/01/22 05:52:20;;;;;;;15.60;10.73;;;5.10;99.90;;;;;;5073671;28;20296;-67
2022/01/22 05:55:06;;;;;;;15.55;9.90;;;5.10;99.90;;;;;;5073403;28;20604;-67
2022/01/22 06:00:18;;;;;;;16.63;11.20;;;5.10;99.90;;;;;;5073401;28;20264;-67
2022/01/22 06:02:45;;;;;;;15.65;11.15;;;5.10;99.90;;;;;;5073183;28;20734;-67
2022/01/22 06:05:12;;;;;;;13.88;9.90;;;5.20;99.90;;;;;;5073158;28;20229;-67
2022/01/22 06:07:39;;;;;;;15.52;9.70;;;5.20;99.90;;;;;;5073655;28;20195;-67
2022/01/22 06:10:16;;;;;;;15.73;9.95;;;5.20;99.90;;;;;;5073200;28;20301;-67
2022/01/22 06:12:57;;;;;;;16.15;10.27;;;5.20;99.90;;;;;;5073482;28;20619;-67
2022/01/22 06:15:25;;;;;;;13.90;9.82;;;5.20;99.90;;;;;;5073274;28;20241;-67
2022/01/22 06:17:51;;;;;;;17.23;11.10;;;5.20;99.90;;;;;;5073306;28;20230;-67
2022/01/22 06:20:18;;;;;;;16.33;10.98;;;5.20;99.90;;;;;;5073554;28;20289;-67
2022/01/22 06:22:45;;;;;;;14.10;10.43;;;5.20;99.90;;;;;;5073297;28;20229;-67
2022/01/22 06:25:12;;;;;;;15.63;10.05;;;5.20;99.90;;;;;;5072959;28;20209;-67
2022/01/22 06:27:39;;;;;;;13.75;10.38;;;5.10;99.90;;;;;;5072972;28;20679;-67
2022/01/22 06:30:08;;;;;;;13.07;10.00;;;5.20;99.90;;;;;;5072837;28;20293;-67
2022/01/22 06:32:35;;;;;;;15.25;9.80;;;5.10;99.90;;;;;;5073142;28;20775;-67
2022/01/22 06:35:02;;;;;;;12.65;9.88;;;5.20;99.90;;;;;;5072894;28;20302;-67
2022/01/22 06:37:29;;;;;;;14.55;9.95;;;5.10;99.90;;;;;;5072929;28;20222;-67
2022/01/22 06:42:40;;;;;;;16.65;10.68;;;5.10;99.90;;;;;;5041665;28;20195;-67
2022/01/22 06:45:09;;;;;;;17.40;9.85;;;5.10;99.90;;;;;;5072965;28;20203;-67
2022/01/22 06:47:36;;;;;;;12.50;9.55;;;5.20;99.90;;;;;;5072921;28;20206;-67
2022/01/22 06:50:04;;;;;;;12.55;9.38;;;5.20;99.90;;;;;;5072633;28;20207;-67
2022/01/22 06:52:31;;;;;;;13.77;9.00;;;5.20;99.90;;;;;;5072754;28;20213;-67
2022/01/22 06:54:58;;;;;;;11.82;8.93;;;5.10;99.90;;;;;;5072475;28;20210;-67
2022/01/22 06:57:25;;;;;;;16.45;10.32;;;5.10;99.90;;;;;;5072800;28;20646;-67
2022/01/22 06:59:52;;;;;;;15.43;10.63;;;5.10;99.90;;;;;;5072473;28;20198;-67
2022/01/22 07:02:20;;;;;;;11.10;8.43;;;5.10;99.90;;;;;;5072744;28;20673;-67
2022/01/22 07:04:47;;;;;;;14.48;10.10;;;5.20;99.90;;;;;;5072543;28;20253;-67
2022/01/22 07:07:14;;;;;;;14.25;9.70;;;5.20;99.90;;;;;;5072575;28;20568;-67
2022/01/22 07:09:41;;;;;;;12.65;8.77;;;5.20;99.90;;;;;;5072748;28;20206;-67
2022/01/22 07:12:11;;;;;;;15.25;9.48;;;5.30;99.90;;;;;;5072841;28;20210;-67
2022/01/22 07:14:38;;;;;;;12.65;9.52;;;5.30;99.90;;;;;;5072311;28;20235;-67
2022/01/22 07:17:07;;;;;;;14.25;8.90;;;5.30;99.90;;;;;;5074934;28;20230;-67
2022/01/22 07:19:39;;;;;;;15.02;9.80;;;5.30;99.90;;;;;;5076544;28;20298;-67
2022/01/22 07:22:19;;;;;;;16.73;9.13;;;5.20;99.90;;;;;;5076611;28;20203;-67
2022/01/22 07:24:46;;;;;;;13.63;10.32;;;5.20;99.90;;;;;;5076374;28;20257;-67
2022/01/22 07:27:13;;;;;;;14.63;9.90;;;5.20;99.90;;;;;;5076403;28;20209;-67
2022/01/22 07:29:42;;;;;;;12.40;9.10;;;5.20;99.90;;;;;;5076191;28;20234;-67
2022/01/22 07:32:13;;;;;;;13.20;8.65;;;5.20;99.90;;;;;;5076437;28;20207;-67
2022/01/22 07:34:42;;;;;;;14.27;9.98;;;5.20;99.90;;;;;;5076175;28;20218;-67
2022/01/22 07:37:08;;;;;;;14.80;9.45;;;5.20;99.90;;;;;;5076363;28;20309;-67
2022/01/22 07:39:35;;;;;;;13.07;9.82;;;5.20;99.90;;;;;;5076448;28;20301;-67
2022/01/22 07:42:02;;;;;;;13.77;9.52;;;5.20;99.90;;;;;;5075981;28;20199;-67
2022/01/22 07:44:29;;;;;;;14.65;8.90;;;5.20;99.90;;;;;;5075770;28;20222;-67
2022/01/22 07:46:56;;;;;;;14.50;10.98;;;5.30;99.90;;;;;;5075635;28;20211;-67
2022/01/22 07:49:23;;;;;;;13.30;10.23;;;5.30;99.90;;;;;;5075759;28;20203;-67
2022/01/22 07:51:51;;;;;;;16.58;9.55;;;5.30;99.90;;;;;;5076056;28;20209;-67
2022/01/22 07:54:20;;;;;;;14.50;9.45;;;5.30;99.90;;;;;;5075765;28;20237;-67
2022/01/22 07:56:47;;;;;;;13.93;9.32;;;5.30;99.90;;;;;;5076045;28;20241;-67
2022/01/22 07:59:14;;;;;;;12.80;8.95;;;5.20;99.90;;;;;;5075880;28;20234;-67
2022/01/22 08:01:41;;;;;;;12.00;8.30;;;5.20;99.90;;;;;;5075582;28;20289;-67
2022/01/22 08:04:08;;;;;;;11.07;8.23;;;5.20;99.90;;;;;;5075667;28;20237;-67
2022/01/22 08:06:34;;;;;;;14.00;9.15;;;5.00;99.90;;;;;;5075682;28;20576;-67
2022/01/22 08:09:05;;;;;;;16.80;9.85;;;5.00;99.90;;;;;;5075625;28;20752;-67
2022/01/22 08:11:32;;;;;;;14.95;10.40;;;5.10;99.90;;;;;;5075411;28;20211;-67
2022/01/22 08:13:58;;;;;;;13.00;8.48;;;5.10;99.90;;;;;;5075200;28;20229;-67
2022/01/22 08:16:25;;;;;;;15.85;10.13;;;5.00;99.90;;;;;;5075610;28;20298;-67
2022/01/22 08:18:52;;;;;;;15.10;9.90;;;5.00;99.90;;;;;;5075640;28;20296;-67
2022/01/22 08:21:19;;;;;;;17.75;10.43;;;5.00;99.90;;;;;;5075483;28;20205;-67
2022/01/22 08:23:46;;;;;;;14.88;10.50;;;5.00;99.90;;;;;;5075279;28;20355;-67
2022/01/22 08:26:18;;;;;;;14.93;10.10;;;5.00;99.90;;;;;;5075164;28;20752;-67
2022/01/22 08:28:54;;;;;;;17.52;10.55;;;4.90;99.90;;;;;;5074677;28;20202;-67
2022/01/22 08:31:25;;;;;;;16.58;10.63;;;4.90;99.90;;;;;;5075434;28;20310;-66
2022/01/22 08:36:37;;;;;;;14.55;10.85;;;4.90;99.90;;;;;;5074957;28;20198;-67
2022/01/22 08:39:04;;;;;;;17.55;10.93;;;4.90;99.90;;;;;;5074883;28;20199;-67
2022/01/22 08:41:33;;;;;;;15.43;10.80;;;4.90;99.90;;;;;;5075167;28;20295;-67
2022/01/22 08:44:00;;;;;;;22.85;11.20;;;4.90;99.90;;;;;;5074675;28;20219;-67
2022/01/22 08:46:28;;;;;;;18.63;11.00;;;4.90;99.90;;;;;;5074887;28;20198;-67
2022/01/22 08:48:54;;;;;;;16.70;10.70;;;4.90;99.90;;;;;;5074768;28;20572;-67
2022/01/22 08:51:22;;;;;;;16.35;11.45;;;4.90;99.90;;;;;;5074884;28;20203;-66
2022/01/22 08:53:49;;;;;;;12.88;8.55;;;4.90;99.90;;;;;;5074579;28;20226;-67
2022/01/22 08:56:17;;;;;;;17.30;12.32;;;4.90;99.90;;;;;;5074849;28;20210;-67
2022/01/22 08:58:45;;;;;;;21.63;11.98;;;4.90;99.90;;;;;;5074505;28;20227;-67
2022/01/22 09:01:12;;;;;;;18.25;11.38;;;5.00;99.90;;;;;;5074701;28;20199;-67
2022/01/22 09:03:39;;;;;;;17.70;11.43;;;5.00;99.90;;;;;;5074719;28;20218;-67
2022/01/22 09:06:07;;;;;;;19.27;11.93;;;5.00;99.90;;;;;;5074134;28;20207;-67
2022/01/22 09:08:34;;;;;;;19.23;11.32;;;5.10;99.90;;;;;;5074494;28;20234;-67
2022/01/22 09:11:02;;;;;;;18.63;11.70;;;5.10;99.90;;;;;;5074272;28;20213;-67
2022/01/22 09:13:29;;;;;;;15.85;10.95;;;5.20;99.90;;;;;;5074398;28;20591;-67
2022/01/22 09:15:57;;;;;;;18.50;11.77;;;5.20;99.90;;;;;;5073889;28;20207;-67
2022/01/22 09:18:24;;;;;;;17.20;12.85;;;5.20;99.90;;;;;;5074045;28;20309;-67
2022/01/22 09:21:04;;;;;;;19.17;11.90;;;5.30;99.90;;;;;;5073999;28;20209;-67
2022/01/22 09:23:32;;;;;;;20.52;12.25;;;5.20;99.90;;;;;;5074087;28;20255;-67
2022/01/22 09:26:00;;;;;;;18.10;12.23;;;5.20;99.90;;;;;;5073789;28;20290;-67
2022/01/22 09:28:27;;;;;;;17.95;10.85;;;5.20;99.90;;;;;;5073864;28;20199;-67
2022/01/22 09:30:55;;;;;;;17.38;11.45;;;5.20;99.90;;;;;;5073945;28;20202;-67
2022/01/22 09:33:23;;;;;;;17.85;11.27;;;5.30;99.90;;;;;;5074048;28;20223;-67
2022/01/22 09:35:50;;;;;;;20.13;11.50;;;5.30;99.90;;;;;;5073618;28;20207;-67
2022/01/22 09:38:16;;;;;;;15.95;11.13;;;5.30;99.90;;;;;;5073450;28;20245;-67
2022/01/22 09:40:43;;;;;;;21.02;13.70;;;5.30;99.90;;;;;;5073255;28;20202;-67
2022/01/22 09:43:12;;;;;;;19.33;11.68;;;5.30;99.90;;;;;;5073612;28;20223;-67
2022/01/22 09:45:38;;;;;;;19.48;10.82;;;5.40;99.90;;;;;;5073262;28;20226;-67
2022/01/22 09:48:06;;;;;;;14.35;11.05;;;5.40;99.90;;;;;;5073563;28;20664;-67
2022/01/22 09:50:36;;;;;;;14.95;10.73;;;5.40;99.90;;;;;;5073524;28;20586;-67
2022/01/22 09:53:03;;;;;;;15.02;11.60;;;5.50;99.90;;;;;;5073508;28;20223;-67
2022/01/22 09:55:30;;;;;;;14.68;10.75;;;5.50;99.90;;;;;;5073162;28;20300;-67
2022/01/22 09:57:58;;;;;;;16.23;11.38;;;5.50;99.90;;;;;;5073159;28;20230;-67
2022/01/22 10:00:26;;;;;;;17.00;11.57;;;5.60;99.90;;;;;;5073123;28;20664;-67
2022/01/22 10:02:55;;;;;;;14.00;11.20;;;5.60;99.90;;;;;;5073398;28;20227;-67
2022/01/22 10:05:30;;;;;;;17.17;11.73;;;5.60;99.90;;;;;;5073105;28;20209;-67
2022/01/22 10:08:18;;;;;;;18.20;11.18;;;5.60;99.90;;;;;;5072980;28;20684;-67
2022/01/22 10:10:45;;;;;;;16.52;11.43;;;5.60;99.90;;;;;;5072821;28;20211;-67
2022/01/22 10:13:12;;;;;;;18.73;11.35;;;5.60;99.90;;;;;;5073161;28;20222;-67
2022/01/22 10:15:39;;;;;;;15.98;11.32;;;5.60;99.90;;;;;;5072961;28;20209;-67
2022/01/22 10:18:07;;;;;;;21.52;12.55;;;5.70;99.90;;;;;;5072921;28;20309;-67
2022/01/22 10:20:38;;;;;;;18.45;12.18;;;5.70;99.90;;;;;;5072787;28;20295;-67
2022/01/22 10:23:15;;;;;;;21.40;15.13;;;5.70;99.90;;;;;;5072841;28;20713;-67
2022/01/22 10:25:49;;;;;;;20.08;14.07;;;5.70;99.90;;;;;;5072980;28;20198;-67
2022/01/22 10:28:21;;;;;;;17.30;12.32;;;5.80;99.90;;;;;;5072898;28;20622;-67
2022/01/22 10:30:51;;;;;;;16.33;11.70;;;5.80;99.90;;;;;;5072871;28;20210;-67
2022/01/22 10:33:26;;;;;;;15.40;11.88;;;5.80;99.90;;;;;;5072673;28;20284;-67
2022/01/22 10:35:53;;;;;;;15.70;11.60;;;5.90;99.90;;;;;;5072443;28;20244;-67
2022/01/22 10:38:21;;;;;;;17.23;11.40;;;5.90;99.90;;;;;;5072716;28;20225;-67
2022/01/22 10:40:50;;;;;;;21.95;11.40;;;5.90;99.90;;;;;;5072550;28;20665;-67
2022/01/22 10:43:25;;;;;;;14.27;10.40;;;5.90;99.90;;;;;;5072630;28;20223;-67
2022/01/22 10:46:08;;;;;;;15.30;10.93;;;5.90;99.90;;;;;;5072329;28;20213;-67
2022/01/22 10:48:38;;;;;;;13.90;10.50;;;5.90;99.90;;;;;;5072778;28;20203;-68
2022/01/22 10:51:07;;;;;;;13.27;10.57;;;5.90;99.90;;;;;;5072577;28;20241;-68
2022/01/22 10:53:42;;;;;;;16.88;9.98;;;5.90;99.90;;;;;;5072522;28;20219;-68
2022/01/22 10:56:10;;;;;;;14.43;10.45;;;5.90;99.90;;;;;;5072263;28;20238;-67
2022/01/22 10:58:51;;;;;;;13.57;9.90;;;6.00;99.90;;;;;;5072257;28;20233;-67
2022/01/22 11:01:18;;;;;;;11.07;9.52;;;6.00;99.90;;;;;;5072681;28;20210;-68
2022/01/22 11:03:45;;;;;;;11.70;10.40;;;6.00;99.90;;;;;;5072495;28;20223;-67
2022/01/22 11:06:28;;;;;;;14.27;10.05;;;6.00;99.90;;;;;;5072292;28;20207;-68
2022/01/22 11:08:56;;;;;;;14.18;9.40;;;6.10;99.90;;;;;;5072079;28;20203;-67
2022/01/22 11:11:24;;;;;;;16.00;10.35;;;6.10;99.90;;;;;;5072663;28;20199;-68
2022/01/22 11:13:51;;;;;;;13.80;9.90;;;6.10;99.90;;;;;;5072530;28;20329;-67
2022/01/22 11:16:19;;;;;;;12.88;9.95;;;6.10;99.90;;;;;;5072302;28;20579;-67
2022/01/22 11:18:50;;;;;;;14.68;9.95;;;6.20;99.90;;;;;;5072235;28;20317;-68
2022/01/22 11:21:17;;;;;;;14.35;9.88;;;6.20;99.90;;;;;;5072324;28;20212;-68
2022/01/22 11:23:45;;;;;;;13.45;9.93;;;6.20;99.90;;;;;;5071842;28;20232;-68
2022/01/22 11:26:14;;;;;;;15.43;9.65;;;6.20;99.90;;;;;;5072251;28;20207;-68
2022/01/22 11:28:43;;;;;;;13.45;9.90;;;6.20;99.90;;;;;;5072173;28;20203;-67
2022/01/22 11:31:14;;;;;;;12.45;9.82;;;6.20;99.90;;;;;;5072197;28;20229;-67
2022/01/22 11:33:43;;;;;;;15.70;9.65;;;6.20;99.90;;;;;;5072229;28;20597;-68
2022/01/22 11:36:17;;;;;;;14.85;11.05;;;6.20;99.90;;;;;;5072531;28;20207;-68
2022/01/22 11:38:52;;;;;;;15.27;10.23;;;6.20;99.90;;;;;;5072222;28;20218;-68
2022/01/22 11:41:21;;;;;;;14.15;10.10;;;6.20;99.90;;;;;;5072327;28;20202;-68
2022/01/22 11:44:03;;;;;;;14.63;10.27;;;6.30;99.90;;;;;;5072043;28;20218;-68
2022/01/22 11:46:35;;;;;;;14.63;10.35;;;6.30;99.90;;;;;;5072753;28;20668;-70
2022/01/22 11:49:13;;;;;;;18.60;10.77;;;6.40;99.90;;;;;;5072490;28;20199;-70
2022/01/22 11:51:40;;;;;;;15.63;9.77;;;6.40;99.90;;;;;;5072545;28;20203;-70
2022/01/22 11:54:07;;;;;;;15.75;10.45;;;6.40;99.90;;;;;;5071854;28;20233;-70
2022/01/22 11:56:45;;;;;;;11.60;9.90;;;6.50;99.90;;;;;;5072037;28;20203;-70
2022/01/22 11:59:30;;;;;;;15.27;10.07;;;6.60;99.90;;;;;;5072078;28;20238;-70
2022/01/22 12:02:05;;;;;;;15.70;10.95;;;6.60;99.90;;;;;;5072395;28;20217;-70
2022/01/22 12:04:50;;;;;;;14.38;10.02;;;6.70;99.90;;;;;;5075418;28;20223;-70
2022/01/22 12:07:22;;;;;;;15.73;11.75;;;6.70;99.90;;;;;;5075333;28;20244;-68
2022/01/22 12:16:11;;;;;;;14.50;10.32;;;6.60;99.90;;;;;;5075181;28;20606;-69
2022/01/22 12:18:44;;;;;;;12.57;8.63;;;6.40;99.90;;;;;;5075334;28;20310;-69
2022/01/22 12:21:33;;;;;;;9.95;8.05;;;6.50;99.90;;;;;;5075385;28;20209;-68
2022/01/22 12:24:05;;;;;;;9.48;7.20;;;6.40;99.90;;;;;;5074994;28;20603;-68
2022/01/22 12:26:47;;;;;;;7.95;6.28;;;6.50;99.90;;;;;;5075219;28;20294;-69
2022/01/22 12:29:36;;;;;;;7.68;6.35;;;6.40;99.90;;;;;;5075008;28;20206;-68
2022/01/22 12:32:37;;;;;;;11.25;7.88;;;6.40;99.90;;;;;;5075181;28;20209;-68
2022/01/22 12:35:09;;;;;;;10.27;7.55;;;6.40;99.90;;;;;;5074455;28;20207;-69
2022/01/22 12:37:41;;;;;;;8.40;6.60;;;6.40;99.90;;;;;;5075346;28;20207;-68
2022/01/22 12:40:10;;;;;;;9.55;6.72;;;6.50;99.90;;;;;;5074812;28;20576;-68
2022/01/22 12:42:53;;;;;;;11.77;7.05;;;6.50;99.90;;;;;;5075081;28;20198;-68
2022/01/22 12:45:24;;;;;;;8.32;6.90;;;6.50;99.90;;;;;;5075006;28;20668;-68
2022/01/22 12:47:52;;;;;;;7.82;6.65;;;6.50;99.90;;;;;;5074865;28;20202;-68
2022/01/22 12:50:25;;;;;;;11.55;7.40;;;6.40;99.90;;;;;;5074792;28;20290;-68
2022/01/22 12:52:52;;;;;;;8.90;7.03;;;6.40;99.90;;;;;;5074833;28;20222;-68
2022/01/22 12:55:25;;;;;;;12.13;7.90;;;6.40;99.90;;;;;;5074133;28;20295;-68
2022/01/22 12:57:52;;;;;;;9.13;7.25;;;6.40;99.90;;;;;;5074958;28;20597;-68
2022/01/22 13:00:20;;;;;;;9.98;7.72;;;6.50;99.90;;;;;;5074512;28;20562;-68
2022/01/22 13:02:53;;;;;;;11.10;7.75;;;6.50;99.90;;;;;;5074349;28;20696;-68
2022/01/22 13:05:21;;;;;;;10.60;7.97;;;6.50;99.90;;;;;;5074209;28;20679;-68
2022/01/22 13:07:53;;;;;;;9.40;7.50;;;6.40;99.90;;;;;;5074294;28;20202;-68
2022/01/22 13:10:23;;;;;;;9.98;6.78;;;6.50;99.90;;;;;;5074467;28;20206;-68
2022/01/22 13:12:52;;;;;;;9.20;7.47;;;6.50;99.90;;;;;;5074791;28;20317;-68
2022/01/22 13:15:19;;;;;;;8.48;6.80;;;6.50;99.90;;;;;;5073945;28;20202;-68
2022/01/22 13:17:53;;;;;;;12.15;7.75;;;6.50;99.90;;;;;;5074384;28;20202;-67
2022/01/22 13:20:20;;;;;;;12.98;8.38;;;6.30;99.90;;;;;;5074144;28;20227;-67
2022/01/22 13:22:47;;;;;;;11.52;7.35;;;6.20;99.90;;;;;;5074203;28;20309;-68
2022/01/22 13:25:15;;;;;;;10.70;8.27;;;6.20;99.90;;;;;;5073952;28;20199;-69
2022/01/22 13:27:44;;;;;;;11.15;7.80;;;6.20;99.90;;;;;;5074107;28;20285;-70
2022/01/22 13:30:13;;;;;;;12.30;8.60;;;6.30;99.90;;;;;;5073690;28;20660;-71
2022/01/22 13:32:50;;;;;;;11.98;8.50;;;6.40;99.90;;;;;;5073730;28;20214;-68
2022/01/22 13:35:31;;;;;;;10.50;8.70;;;6.40;99.90;;;;;;5073795;28;20207;-68
2022/01/22 13:49:26;;;;;;;11.73;8.88;;;6.30;99.90;;;;;;5037205;28;20199;-68
2022/01/22 13:51:56;;;;;;;9.50;8.05;;;6.40;99.90;;;;;;5073681;28;20301;-68
2022/01/22 13:54:29;;;;;;;8.75;5.57;;;6.10;99.90;;;;;;5073320;28;20606;-68
2022/01/22 13:56:59;;;;;;;12.02;8.55;;;6.10;99.90;;;;;;5073526;28;20204;-68
2022/01/22 13:59:28;;;;;;;12.82;9.38;;;6.10;99.90;;;;;;5073224;28;20693;-68
2022/01/22 14:02:11;;;;;;;12.88;9.45;;;6.20;99.90;;;;;;5073225;28;20209;-68
2022/01/22 14:04:43;;;;;;;13.95;8.50;;;6.20;99.90;;;;;;5073136;28;20284;-68
2022/01/22 14:07:17;;;;;;;15.43;9.30;;;6.30;99.90;;;;;;5073010;28;20199;-67
2022/01/22 14:09:54;;;;;;;11.90;9.02;;;6.30;99.90;;;;;;5072947;28;20285;-67
2022/01/22 14:12:22;;;;;;;12.82;8.10;;;6.40;99.90;;;;;;5074053;28;20298;-68